sensor_id;sensor_type;location;lat;lon;timestamp;P1;durP1;ratioP1;P2;durP2;ratioP2
55815;SDS011;41744;52.404;16.942;2024-01-15T00:02:14;12.80;;;6.50;;
55815;SDS011;41744;52.404;16.942;2024-01-15T00:04:40;11.17;;;5.97;;
55815;SDS011;41744;52.404;16.942;2024-01-15T00:07:07;12.63;;;5.77;;
55815;SDS011;41744;52.404;16.942;2024-01-15T00:09:33;12.93;;;6.10;;
55815;SDS011;41744;52.404;16.942;2024-01-15T00:11:59;13.77;;;6.27;;
55815;SDS011;41744;52.404;16.942;2024-01-15T00:14:25;13.73;;;6.60;;
55815;SDS011;41744;52.404;16.942;2024-01-15T00:16:51;14.00;;;6.33;;
55815;SDS011;41744;52.404;16.942;2024-01-15T00:19:19;12.20;;;6.03;;
55815;SDS011;41744;52.404;16.942;2024-01-15T00:21:46;12.47;;;6.20;;
55815;SDS011;41744;52.404;16.942;2024-01-15T00:24:12;13.10;;;5.97;;
55815;SDS011;41744;52.404;16.942;2024-01-15T00:26:38;13.77;;;6.93;;
55815;SDS011;41744;52.404;16.942;2024-01-15T00:29:04;14.60;;;6.40;;
55815;SDS011;41744;52.404;16.942;2024-01-15T00:31:30;13.07;;;6.20;;
55815;SDS011;41744;52.404;16.942;2024-01-15T00:33:56;14.83;;;6.50;;
55815;SDS011;41744;52.404;16.942;2024-01-15T00:36:25;15.83;;;6.87;;
55815;SDS011;41744;52.404;16.942;2024-01-15T00:38:51;15.57;;;6.17;;
55815;SDS011;41744;52.404;16.942;2024-01-15T00:41:17;12.70;;;6.40;;
55815;SDS011;41744;52.404;16.942;2024-01-15T00:43:46;14.60;;;7.23;;
55815;SDS011;41744;52.404;16.942;2024-01-15T00:46:14;14.33;;;6.00;;
55815;SDS011;41744;52.404;16.942;2024-01-15T00:48:40;17.00;;;6.93;;
55815;SDS011;41744;52.404;16.942;2024-01-15T00:51:06;15.53;;;7.57;;
55815;SDS011;41744;52.404;16.942;2024-01-15T00:53:32;16.43;;;6.97;;
55815;SDS011;41744;52.404;16.942;2024-01-15T00:55:58;13.70;;;6.27;;
55815;SDS011;41744;52.404;16.942;2024-01-15T00:58:25;13.30;;;6.60;;
55815;SDS011;41744;52.404;16.942;2024-01-15T01:00:51;13.97;;;7.10;;
55815;SDS011;41744;52.404;16.942;2024-01-15T01:03:17;17.30;;;7.03;;
55815;SDS011;41744;52.404;16.942;2024-01-15T01:05:43;16.93;;;6.60;;
55815;SDS011;41744;52.404;16.942;2024-01-15T01:08:09;16.57;;;7.90;;
55815;SDS011;41744;52.404;16.942;2024-01-15T01:10:36;15.97;;;7.50;;
55815;SDS011;41744;52.404;16.942;2024-01-15T01:13:02;15.03;;;7.50;;
55815;SDS011;41744;52.404;16.942;2024-01-15T01:15:28;16.50;;;6.90;;
55815;SDS011;41744;52.404;16.942;2024-01-15T01:17:55;15.13;;;6.90;;
55815;SDS011;41744;52.404;16.942;2024-01-15T01:20:21;17.57;;;7.60;;
55815;SDS011;41744;52.404;16.942;2024-01-15T01:22:47;17.03;;;7.60;;
55815;SDS011;41744;52.404;16.942;2024-01-15T01:25:13;16.27;;;7.10;;
55815;SDS011;41744;52.404;16.942;2024-01-15T01:27:39;17.87;;;6.80;;
55815;SDS011;41744;52.404;16.942;2024-01-15T01:30:05;16.83;;;7.13;;
55815;SDS011;41744;52.404;16.942;2024-01-15T01:32:31;18.70;;;7.47;;
55815;SDS011;41744;52.404;16.942;2024-01-15T01:34:57;16.67;;;7.03;;
55815;SDS011;41744;52.404;16.942;2024-01-15T01:37:24;18.00;;;7.77;;
55815;SDS011;41744;52.404;16.942;2024-01-15T01:39:50;18.40;;;7.67;;
55815;SDS011;41744;52.404;16.942;2024-01-15T01:42:16;14.30;;;6.93;;
55815;SDS011;41744;52.404;16.942;2024-01-15T01:44:42;19.57;;;7.57;;
55815;SDS011;41744;52.404;16.942;2024-01-15T01:47:08;15.50;;;7.13;;
55815;SDS011;41744;52.404;16.942;2024-01-15T01:49:34;16.67;;;6.90;;
55815;SDS011;41744;52.404;16.942;2024-01-15T01:52:04;15.93;;;6.47;;
55815;SDS011;41744;52.404;16.942;2024-01-15T01:54:32;18.77;;;6.80;;
55815;SDS011;41744;52.404;16.942;2024-01-15T01:56:58;16.10;;;6.77;;
55815;SDS011;41744;52.404;16.942;2024-01-15T01:59:27;15.37;;;6.73;;
55815;SDS011;41744;52.404;16.942;2024-01-15T02:01:56;14.70;;;6.50;;
55815;SDS011;41744;52.404;16.942;2024-01-15T02:04:23;16.07;;;6.77;;
55815;SDS011;41744;52.404;16.942;2024-01-15T02:06:50;13.23;;;6.60;;
55815;SDS011;41744;52.404;16.942;2024-01-15T02:09:16;16.10;;;6.73;;
55815;SDS011;41744;52.404;16.942;2024-01-15T02:11:42;15.07;;;6.77;;
55815;SDS011;41744;52.404;16.942;2024-01-15T02:14:09;16.63;;;7.00;;
55815;SDS011;41744;52.404;16.942;2024-01-15T02:16:35;15.63;;;6.83;;
55815;SDS011;41744;52.404;16.942;2024-01-15T02:19:01;15.13;;;6.70;;
55815;SDS011;41744;52.404;16.942;2024-01-15T02:21:27;14.10;;;6.63;;
55815;SDS011;41744;52.404;16.942;2024-01-15T02:23:54;14.00;;;6.70;;
55815;SDS011;41744;52.404;16.942;2024-01-15T02:26:20;14.37;;;5.93;;
55815;SDS011;41744;52.404;16.942;2024-01-15T02:28:47;12.57;;;5.83;;
55815;SDS011;41744;52.404;16.942;2024-01-15T02:31:13;12.03;;;5.67;;
55815;SDS011;41744;52.404;16.942;2024-01-15T02:33:39;13.17;;;6.10;;
55815;SDS011;41744;52.404;16.942;2024-01-15T02:36:06;13.07;;;5.63;;
55815;SDS011;41744;52.404;16.942;2024-01-15T02:38:33;13.07;;;5.97;;
55815;SDS011;41744;52.404;16.942;2024-01-15T02:40:58;14.20;;;6.20;;
55815;SDS011;41744;52.404;16.942;2024-01-15T02:43:24;12.50;;;6.27;;
55815;SDS011;41744;52.404;16.942;2024-01-15T02:45:50;14.80;;;6.53;;
55815;SDS011;41744;52.404;16.942;2024-01-15T02:48:17;11.07;;;5.27;;
55815;SDS011;41744;52.404;16.942;2024-01-15T02:50:43;13.47;;;6.20;;
55815;SDS011;41744;52.404;16.942;2024-01-15T02:53:09;14.97;;;6.07;;
55815;SDS011;41744;52.404;16.942;2024-01-15T02:55:35;13.67;;;5.73;;
55815;SDS011;41744;52.404;16.942;2024-01-15T02:58:03;12.67;;;5.87;;
55815;SDS011;41744;52.404;16.942;2024-01-15T03:00:29;15.17;;;6.97;;
55815;SDS011;41744;52.404;16.942;2024-01-15T03:02:55;15.40;;;6.40;;
55815;SDS011;41744;52.404;16.942;2024-01-15T03:05:21;15.73;;;6.43;;
55815;SDS011;41744;52.404;16.942;2024-01-15T03:07:47;12.97;;;5.93;;
55815;SDS011;41744;52.404;16.942;2024-01-15T03:10:13;14.20;;;6.00;;
55815;SDS011;41744;52.404;16.942;2024-01-15T03:12:39;12.33;;;6.20;;
55815;SDS011;41744;52.404;16.942;2024-01-15T03:15:05;15.73;;;5.77;;
55815;SDS011;41744;52.404;16.942;2024-01-15T03:17:31;14.17;;;6.07;;
55815;SDS011;41744;52.404;16.942;2024-01-15T03:19:57;17.07;;;6.07;;
55815;SDS011;41744;52.404;16.942;2024-01-15T03:22:23;14.30;;;5.97;;
55815;SDS011;41744;52.404;16.942;2024-01-15T03:24:49;14.57;;;5.97;;
55815;SDS011;41744;52.404;16.942;2024-01-15T03:27:15;11.63;;;5.87;;
55815;SDS011;41744;52.404;16.942;2024-01-15T03:29:41;16.10;;;6.30;;
55815;SDS011;41744;52.404;16.942;2024-01-15T03:32:07;12.80;;;6.27;;
55815;SDS011;41744;52.404;16.942;2024-01-15T03:34:33;12.57;;;5.67;;
55815;SDS011;41744;52.404;16.942;2024-01-15T03:36:59;10.33;;;5.33;;
55815;SDS011;41744;52.404;16.942;2024-01-15T03:39:25;15.47;;;6.33;;
55815;SDS011;41744;52.404;16.942;2024-01-15T03:41:51;14.63;;;6.27;;
55815;SDS011;41744;52.404;16.942;2024-01-15T03:44:17;14.37;;;5.97;;
55815;SDS011;41744;52.404;16.942;2024-01-15T03:46:43;15.17;;;5.97;;
55815;SDS011;41744;52.404;16.942;2024-01-15T03:49:10;13.20;;;6.03;;
55815;SDS011;41744;52.404;16.942;2024-01-15T03:51:37;12.97;;;5.80;;
55815;SDS011;41744;52.404;16.942;2024-01-15T03:54:03;13.27;;;5.80;;
55815;SDS011;41744;52.404;16.942;2024-01-15T03:56:29;13.87;;;5.90;;
55815;SDS011;41744;52.404;16.942;2024-01-15T03:58:55;11.03;;;5.73;;
55815;SDS011;41744;52.404;16.942;2024-01-15T04:01:21;14.50;;;5.67;;
55815;SDS011;41744;52.404;16.942;2024-01-15T04:03:47;15.20;;;5.70;;
55815;SDS011;41744;52.404;16.942;2024-01-15T04:06:13;13.10;;;5.60;;
55815;SDS011;41744;52.404;16.942;2024-01-15T04:08:39;11.97;;;5.50;;
55815;SDS011;41744;52.404;16.942;2024-01-15T04:11:05;13.77;;;5.53;;
55815;SDS011;41744;52.404;16.942;2024-01-15T04:13:34;13.03;;;5.60;;
55815;SDS011;41744;52.404;16.942;2024-01-15T04:16:00;13.03;;;5.30;;
55815;SDS011;41744;52.404;16.942;2024-01-15T04:18:26;15.03;;;5.67;;
55815;SDS011;41744;52.404;16.942;2024-01-15T04:20:52;13.77;;;5.53;;
55815;SDS011;41744;52.404;16.942;2024-01-15T04:23:18;13.57;;;5.23;;
55815;SDS011;41744;52.404;16.942;2024-01-15T04:25:44;11.60;;;5.50;;
55815;SDS011;41744;52.404;16.942;2024-01-15T04:28:11;11.90;;;4.93;;
55815;SDS011;41744;52.404;16.942;2024-01-15T04:30:37;11.37;;;5.50;;
55815;SDS011;41744;52.404;16.942;2024-01-15T04:33:03;9.43;;;4.70;;
55815;SDS011;41744;52.404;16.942;2024-01-15T04:35:30;11.73;;;4.77;;
55815;SDS011;41744;52.404;16.942;2024-01-15T04:37:56;11.77;;;5.00;;
55815;SDS011;41744;52.404;16.942;2024-01-15T04:40:22;10.03;;;5.27;;
55815;SDS011;41744;52.404;16.942;2024-01-15T04:42:48;11.20;;;4.77;;
55815;SDS011;41744;52.404;16.942;2024-01-15T04:45:14;9.90;;;4.93;;
55815;SDS011;41744;52.404;16.942;2024-01-15T04:47:40;11.50;;;4.37;;
55815;SDS011;41744;52.404;16.942;2024-01-15T04:50:07;12.27;;;4.77;;
55815;SDS011;41744;52.404;16.942;2024-01-15T04:52:33;10.43;;;4.10;;
55815;SDS011;41744;52.404;16.942;2024-01-15T04:54:59;8.57;;;3.97;;
55815;SDS011;41744;52.404;16.942;2024-01-15T04:57:25;8.53;;;3.80;;
55815;SDS011;41744;52.404;16.942;2024-01-15T04:59:51;7.57;;;3.37;;
55815;SDS011;41744;52.404;16.942;2024-01-15T05:02:17;7.97;;;3.77;;
55815;SDS011;41744;52.404;16.942;2024-01-15T05:04:43;8.30;;;3.83;;
55815;SDS011;41744;52.404;16.942;2024-01-15T05:07:09;9.30;;;3.73;;
55815;SDS011;41744;52.404;16.942;2024-01-15T05:09:35;10.13;;;4.27;;
55815;SDS011;41744;52.404;16.942;2024-01-15T05:12:01;7.53;;;3.63;;
55815;SDS011;41744;52.404;16.942;2024-01-15T05:14:27;9.07;;;4.07;;
55815;SDS011;41744;52.404;16.942;2024-01-15T05:16:53;8.13;;;4.07;;
55815;SDS011;41744;52.404;16.942;2024-01-15T05:19:19;10.77;;;4.00;;
55815;SDS011;41744;52.404;16.942;2024-01-15T05:21:45;9.73;;;3.83;;
55815;SDS011;41744;52.404;16.942;2024-01-15T05:24:11;9.87;;;4.30;;
55815;SDS011;41744;52.404;16.942;2024-01-15T05:26:37;12.60;;;4.37;;
55815;SDS011;41744;52.404;16.942;2024-01-15T05:29:03;9.27;;;3.67;;
55815;SDS011;41744;52.404;16.942;2024-01-15T05:31:29;10.50;;;4.00;;
55815;SDS011;41744;52.404;16.942;2024-01-15T05:33:55;9.00;;;4.23;;
55815;SDS011;41744;52.404;16.942;2024-01-15T05:36:21;7.60;;;3.50;;
55815;SDS011;41744;52.404;16.942;2024-01-15T05:38:47;8.00;;;4.00;;
55815;SDS011;41744;52.404;16.942;2024-01-15T05:41:14;8.00;;;3.63;;
55815;SDS011;41744;52.404;16.942;2024-01-15T05:43:40;7.57;;;3.73;;
55815;SDS011;41744;52.404;16.942;2024-01-15T05:46:06;7.97;;;3.97;;
55815;SDS011;41744;52.404;16.942;2024-01-15T05:48:32;9.13;;;3.67;;
55815;SDS011;41744;52.404;16.942;2024-01-15T05:50:58;6.50;;;3.50;;
55815;SDS011;41744;52.404;16.942;2024-01-15T05:53:24;9.03;;;3.60;;
55815;SDS011;41744;52.404;16.942;2024-01-15T05:55:50;6.23;;;3.27;;
55815;SDS011;41744;52.404;16.942;2024-01-15T05:58:16;8.50;;;3.37;;
55815;SDS011;41744;52.404;16.942;2024-01-15T06:00:42;7.57;;;3.50;;
55815;SDS011;41744;52.404;16.942;2024-01-15T06:03:08;9.10;;;3.70;;
55815;SDS011;41744;52.404;16.942;2024-01-15T06:05:34;8.30;;;3.73;;
55815;SDS011;41744;52.404;16.942;2024-01-15T06:08:00;10.57;;;3.93;;
55815;SDS011;41744;52.404;16.942;2024-01-15T06:10:26;6.60;;;3.30;;
55815;SDS011;41744;52.404;16.942;2024-01-15T06:12:52;9.53;;;3.50;;
55815;SDS011;41744;52.404;16.942;2024-01-15T06:15:18;7.23;;;3.50;;
55815;SDS011;41744;52.404;16.942;2024-01-15T06:17:44;8.50;;;3.87;;
55815;SDS011;41744;52.404;16.942;2024-01-15T06:20:11;6.00;;;3.63;;
55815;SDS011;41744;52.404;16.942;2024-01-15T06:22:37;6.77;;;3.40;;
55815;SDS011;41744;52.404;16.942;2024-01-15T06:25:05;8.63;;;3.67;;
55815;SDS011;41744;52.404;16.942;2024-01-15T06:27:31;8.23;;;3.73;;
55815;SDS011;41744;52.404;16.942;2024-01-15T06:29:57;11.43;;;3.93;;
55815;SDS011;41744;52.404;16.942;2024-01-15T06:32:23;8.97;;;3.47;;
55815;SDS011;41744;52.404;16.942;2024-01-15T06:34:49;8.17;;;3.93;;
55815;SDS011;41744;52.404;16.942;2024-01-15T06:37:15;11.67;;;4.23;;
55815;SDS011;41744;52.404;16.942;2024-01-15T06:39:41;8.80;;;4.13;;
55815;SDS011;41744;52.404;16.942;2024-01-15T06:42:07;8.33;;;3.90;;
55815;SDS011;41744;52.404;16.942;2024-01-15T06:44:33;8.40;;;3.63;;
55815;SDS011;41744;52.404;16.942;2024-01-15T06:46:59;9.20;;;3.97;;
55815;SDS011;41744;52.404;16.942;2024-01-15T06:49:28;9.27;;;3.90;;
55815;SDS011;41744;52.404;16.942;2024-01-15T06:51:54;7.83;;;3.40;;
55815;SDS011;41744;52.404;16.942;2024-01-15T06:54:20;9.80;;;3.93;;
55815;SDS011;41744;52.404;16.942;2024-01-15T06:56:47;10.80;;;4.07;;
55815;SDS011;41744;52.404;16.942;2024-01-15T06:59:13;8.83;;;4.17;;
55815;SDS011;41744;52.404;16.942;2024-01-15T07:01:39;10.97;;;4.07;;
55815;SDS011;41744;52.404;16.942;2024-01-15T07:04:05;12.23;;;4.07;;
55815;SDS011;41744;52.404;16.942;2024-01-15T07:06:31;9.33;;;3.77;;
55815;SDS011;41744;52.404;16.942;2024-01-15T07:08:57;7.47;;;3.63;;
55815;SDS011;41744;52.404;16.942;2024-01-15T07:11:23;7.83;;;3.63;;
55815;SDS011;41744;52.404;16.942;2024-01-15T07:13:49;8.83;;;4.10;;
55815;SDS011;41744;52.404;16.942;2024-01-15T07:16:15;10.30;;;4.00;;
55815;SDS011;41744;52.404;16.942;2024-01-15T07:18:41;11.23;;;3.90;;
55815;SDS011;41744;52.404;16.942;2024-01-15T07:21:07;7.70;;;3.93;;
55815;SDS011;41744;52.404;16.942;2024-01-15T07:23:33;8.50;;;3.97;;
55815;SDS011;41744;52.404;16.942;2024-01-15T07:25:59;11.47;;;4.07;;
55815;SDS011;41744;52.404;16.942;2024-01-15T07:28:25;7.67;;;3.73;;
55815;SDS011;41744;52.404;16.942;2024-01-15T07:30:51;8.87;;;3.67;;
55815;SDS011;41744;52.404;16.942;2024-01-15T07:33:17;12.83;;;4.10;;
55815;SDS011;41744;52.404;16.942;2024-01-15T07:35:43;8.07;;;3.57;;
55815;SDS011;41744;52.404;16.942;2024-01-15T07:38:09;7.53;;;3.60;;
55815;SDS011;41744;52.404;16.942;2024-01-15T07:40:36;13.33;;;4.10;;
55815;SDS011;41744;52.404;16.942;2024-01-15T07:43:03;9.03;;;4.13;;
55815;SDS011;41744;52.404;16.942;2024-01-15T07:45:29;11.13;;;4.03;;
55815;SDS011;41744;52.404;16.942;2024-01-15T07:47:55;13.73;;;4.33;;
55815;SDS011;41744;52.404;16.942;2024-01-15T07:50:21;9.37;;;3.73;;
55815;SDS011;41744;52.404;16.942;2024-01-15T07:52:47;10.73;;;4.30;;
55815;SDS011;41744;52.404;16.942;2024-01-15T07:55:13;7.80;;;3.73;;
55815;SDS011;41744;52.404;16.942;2024-01-15T07:57:39;11.53;;;4.40;;
55815;SDS011;41744;52.404;16.942;2024-01-15T08:00:06;8.60;;;3.60;;
55815;SDS011;41744;52.404;16.942;2024-01-15T08:02:34;7.00;;;3.60;;
55815;SDS011;41744;52.404;16.942;2024-01-15T08:05:00;10.40;;;4.07;;
55815;SDS011;41744;52.404;16.942;2024-01-15T08:07:26;10.67;;;4.23;;
55815;SDS011;41744;52.404;16.942;2024-01-15T08:09:52;10.90;;;4.33;;
55815;SDS011;41744;52.404;16.942;2024-01-15T08:12:18;9.47;;;4.30;;
55815;SDS011;41744;52.404;16.942;2024-01-15T08:14:44;12.13;;;3.87;;
55815;SDS011;41744;52.404;16.942;2024-01-15T08:17:10;12.43;;;4.00;;
55815;SDS011;41744;52.404;16.942;2024-01-15T08:19:36;8.80;;;4.23;;
55815;SDS011;41744;52.404;16.942;2024-01-15T08:22:04;10.43;;;3.87;;
55815;SDS011;41744;52.404;16.942;2024-01-15T08:24:30;10.27;;;3.73;;
55815;SDS011;41744;52.404;16.942;2024-01-15T08:26:56;10.93;;;4.37;;
55815;SDS011;41744;52.404;16.942;2024-01-15T08:29:22;9.57;;;3.93;;
55815;SDS011;41744;52.404;16.942;2024-01-15T08:31:49;10.10;;;3.70;;
55815;SDS011;41744;52.404;16.942;2024-01-15T08:34:16;10.63;;;4.03;;
55815;SDS011;41744;52.404;16.942;2024-01-15T08:36:42;9.77;;;4.13;;
55815;SDS011;41744;52.404;16.942;2024-01-15T08:39:08;10.53;;;4.03;;
55815;SDS011;41744;52.404;16.942;2024-01-15T08:41:34;11.23;;;3.87;;
55815;SDS011;41744;52.404;16.942;2024-01-15T08:44:00;11.73;;;4.50;;
55815;SDS011;41744;52.404;16.942;2024-01-15T08:46:26;9.63;;;4.00;;
55815;SDS011;41744;52.404;16.942;2024-01-15T08:48:52;13.20;;;3.73;;
55815;SDS011;41744;52.404;16.942;2024-01-15T08:51:18;10.87;;;3.93;;
55815;SDS011;41744;52.404;16.942;2024-01-15T08:53:44;14.53;;;4.10;;
55815;SDS011;41744;52.404;16.942;2024-01-15T08:56:10;9.33;;;3.73;;
55815;SDS011;41744;52.404;16.942;2024-01-15T08:58:36;9.47;;;3.80;;
55815;SDS011;41744;52.404;16.942;2024-01-15T09:01:02;9.23;;;4.00;;
55815;SDS011;41744;52.404;16.942;2024-01-15T09:03:28;10.53;;;4.30;;
55815;SDS011;41744;52.404;16.942;2024-01-15T09:05:54;11.07;;;3.83;;
55815;SDS011;41744;52.404;16.942;2024-01-15T09:08:20;10.37;;;3.80;;
55815;SDS011;41744;52.404;16.942;2024-01-15T09:10:46;8.50;;;3.50;;
55815;SDS011;41744;52.404;16.942;2024-01-15T09:13:12;10.83;;;4.17;;
55815;SDS011;41744;52.404;16.942;2024-01-15T09:15:38;9.33;;;4.00;;
55815;SDS011;41744;52.404;16.942;2024-01-15T09:18:04;13.63;;;4.37;;
55815;SDS011;41744;52.404;16.942;2024-01-15T09:20:31;9.50;;;3.70;;
55815;SDS011;41744;52.404;16.942;2024-01-15T09:22:57;11.70;;;4.03;;
55815;SDS011;41744;52.404;16.942;2024-01-15T09:25:23;7.73;;;3.40;;
55815;SDS011;41744;52.404;16.942;2024-01-15T09:27:49;9.83;;;3.50;;
55815;SDS011;41744;52.404;16.942;2024-01-15T09:30:16;8.43;;;3.60;;
55815;SDS011;41744;52.404;16.942;2024-01-15T09:32:42;10.00;;;3.43;;
55815;SDS011;41744;52.404;16.942;2024-01-15T09:35:08;8.77;;;3.43;;
55815;SDS011;41744;52.404;16.942;2024-01-15T09:37:35;9.90;;;3.90;;
55815;SDS011;41744;52.404;16.942;2024-01-15T09:40:02;10.40;;;3.97;;
55815;SDS011;41744;52.404;16.942;2024-01-15T09:42:28;10.23;;;3.57;;
55815;SDS011;41744;52.404;16.942;2024-01-15T09:44:55;9.87;;;4.00;;
55815;SDS011;41744;52.404;16.942;2024-01-15T09:47:21;10.33;;;3.87;;
55815;SDS011;41744;52.404;16.942;2024-01-15T09:49:47;7.97;;;3.63;;
55815;SDS011;41744;52.404;16.942;2024-01-15T09:52:14;8.43;;;3.53;;
55815;SDS011;41744;52.404;16.942;2024-01-15T09:54:40;10.43;;;3.67;;
55815;SDS011;41744;52.404;16.942;2024-01-15T09:57:09;11.43;;;4.10;;
55815;SDS011;41744;52.404;16.942;2024-01-15T09:59:34;9.50;;;3.20;;
55815;SDS011;41744;52.404;16.942;2024-01-15T10:02:02;7.87;;;3.27;;
55815;SDS011;41744;52.404;16.942;2024-01-15T10:04:28;9.23;;;3.23;;
55815;SDS011;41744;52.404;16.942;2024-01-15T10:06:54;8.87;;;3.20;;
55815;SDS011;41744;52.404;16.942;2024-01-15T10:09:22;11.10;;;3.10;;
55815;SDS011;41744;52.404;16.942;2024-01-15T10:11:48;8.03;;;3.13;;
55815;SDS011;41744;52.404;16.942;2024-01-15T10:14:14;11.07;;;3.33;;
55815;SDS011;41744;52.404;16.942;2024-01-15T10:16:40;6.13;;;2.83;;
55815;SDS011;41744;52.404;16.942;2024-01-15T10:19:09;11.40;;;3.37;;
55815;SDS011;41744;52.404;16.942;2024-01-15T10:21:37;10.53;;;3.47;;
55815;SDS011;41744;52.404;16.942;2024-01-15T10:24:04;7.47;;;3.27;;
55815;SDS011;41744;52.404;16.942;2024-01-15T10:26:30;10.10;;;3.53;;
55815;SDS011;41744;52.404;16.942;2024-01-15T10:28:57;11.90;;;3.30;;
55815;SDS011;41744;52.404;16.942;2024-01-15T10:31:25;9.13;;;3.10;;
55815;SDS011;41744;52.404;16.942;2024-01-15T10:33:52;9.60;;;3.07;;
55815;SDS011;41744;52.404;16.942;2024-01-15T10:36:18;9.27;;;3.57;;
55815;SDS011;41744;52.404;16.942;2024-01-15T10:38:44;9.40;;;3.50;;
55815;SDS011;41744;52.404;16.942;2024-01-15T10:41:11;8.90;;;3.03;;
55815;SDS011;41744;52.404;16.942;2024-01-15T10:43:37;6.37;;;2.90;;
55815;SDS011;41744;52.404;16.942;2024-01-15T10:46:06;8.00;;;3.27;;
55815;SDS011;41744;52.404;16.942;2024-01-15T10:48:32;9.93;;;2.87;;
55815;SDS011;41744;52.404;16.942;2024-01-15T10:51:00;11.20;;;3.27;;
55815;SDS011;41744;52.404;16.942;2024-01-15T10:53:35;6.77;;;3.00;;
55815;SDS011;41744;52.404;16.942;2024-01-15T10:56:01;7.97;;;3.43;;
55815;SDS011;41744;52.404;16.942;2024-01-15T10:58:28;8.47;;;3.13;;
55815;SDS011;41744;52.404;16.942;2024-01-15T11:00:57;9.50;;;3.03;;
55815;SDS011;41744;52.404;16.942;2024-01-15T11:03:23;13.43;;;3.07;;
55815;SDS011;41744;52.404;16.942;2024-01-15T11:05:49;6.33;;;2.60;;
55815;SDS011;41744;52.404;16.942;2024-01-15T11:08:16;6.03;;;2.40;;
55815;SDS011;41744;52.404;16.942;2024-01-15T11:10:44;7.17;;;2.93;;
55815;SDS011;41744;52.404;16.942;2024-01-15T11:13:21;6.60;;;2.37;;
55815;SDS011;41744;52.404;16.942;2024-01-15T11:16:03;6.10;;;2.33;;
55815;SDS011;41744;52.404;16.942;2024-01-15T11:18:35;8.33;;;2.67;;
55815;SDS011;41744;52.404;16.942;2024-01-15T11:21:19;6.93;;;2.30;;
55815;SDS011;41744;52.404;16.942;2024-01-15T11:23:47;7.63;;;2.43;;
55815;SDS011;41744;52.404;16.942;2024-01-15T11:28:59;8.80;;;2.97;;
55815;SDS011;41744;52.404;16.942;2024-01-15T11:33:54;5.37;;;2.30;;
55815;SDS011;41744;52.404;16.942;2024-01-15T11:36:21;7.53;;;2.63;;
55815;SDS011;41744;52.404;16.942;2024-01-15T11:38:47;7.63;;;2.63;;
55815;SDS011;41744;52.404;16.942;2024-01-15T11:41:14;7.67;;;2.17;;
55815;SDS011;41744;52.404;16.942;2024-01-15T11:43:43;8.47;;;2.67;;
55815;SDS011;41744;52.404;16.942;2024-01-15T11:46:12;8.47;;;3.03;;
55815;SDS011;41744;52.404;16.942;2024-01-15T11:48:42;12.80;;;2.80;;
55815;SDS011;41744;52.404;16.942;2024-01-15T11:51:12;11.73;;;2.67;;
55815;SDS011;41744;52.404;16.942;2024-01-15T11:53:48;8.27;;;2.77;;
55815;SDS011;41744;52.404;16.942;2024-01-15T11:56:15;5.80;;;2.30;;
55815;SDS011;41744;52.404;16.942;2024-01-15T11:58:42;6.57;;;2.60;;
55815;SDS011;41744;52.404;16.942;2024-01-15T12:01:08;11.03;;;2.57;;
55815;SDS011;41744;52.404;16.942;2024-01-15T12:03:34;7.73;;;2.63;;
55815;SDS011;41744;52.404;16.942;2024-01-15T12:06:00;8.30;;;2.83;;
55815;SDS011;41744;52.404;16.942;2024-01-15T12:08:26;5.83;;;2.47;;
55815;SDS011;41744;52.404;16.942;2024-01-15T12:10:52;11.03;;;2.70;;
55815;SDS011;41744;52.404;16.942;2024-01-15T12:13:19;7.53;;;2.80;;
55815;SDS011;41744;52.404;16.942;2024-01-15T12:15:46;10.40;;;3.03;;
55815;SDS011;41744;52.404;16.942;2024-01-15T12:18:13;9.13;;;2.80;;
55815;SDS011;41744;52.404;16.942;2024-01-15T12:20:39;6.63;;;2.90;;
55815;SDS011;41744;52.404;16.942;2024-01-15T12:23:06;10.77;;;3.20;;
55815;SDS011;41744;52.404;16.942;2024-01-15T12:25:32;7.40;;;2.60;;
55815;SDS011;41744;52.404;16.942;2024-01-15T12:27:59;5.67;;;2.53;;
55815;SDS011;41744;52.404;16.942;2024-01-15T12:30:28;9.07;;;3.00;;
55815;SDS011;41744;52.404;16.942;2024-01-15T12:32:55;8.90;;;2.63;;
55815;SDS011;41744;52.404;16.942;2024-01-15T12:35:21;6.50;;;2.37;;
55815;SDS011;41744;52.404;16.942;2024-01-15T12:37:47;13.03;;;2.83;;
55815;SDS011;41744;52.404;16.942;2024-01-15T12:40:19;9.17;;;2.27;;
55815;SDS011;41744;52.404;16.942;2024-01-15T12:42:45;7.33;;;2.30;;
55815;SDS011;41744;52.404;16.942;2024-01-15T12:45:12;7.40;;;2.03;;
55815;SDS011;41744;52.404;16.942;2024-01-15T12:47:38;9.57;;;4.00;;
55815;SDS011;41744;52.404;16.942;2024-01-15T12:50:08;9.17;;;2.80;;
55815;SDS011;41744;52.404;16.942;2024-01-15T12:52:35;10.63;;;2.40;;
55815;SDS011;41744;52.404;16.942;2024-01-15T12:55:04;6.50;;;2.37;;
55815;SDS011;41744;52.404;16.942;2024-01-15T12:57:30;6.43;;;2.07;;
55815;SDS011;41744;52.404;16.942;2024-01-15T12:59:56;11.10;;;2.10;;
55815;SDS011;41744;52.404;16.942;2024-01-15T13:02:22;7.40;;;2.50;;
55815;SDS011;41744;52.404;16.942;2024-01-15T13:04:48;6.23;;;2.07;;
55815;SDS011;41744;52.404;16.942;2024-01-15T13:07:14;8.60;;;2.00;;
55815;SDS011;41744;52.404;16.942;2024-01-15T13:09:40;7.67;;;2.53;;
55815;SDS011;41744;52.404;16.942;2024-01-15T13:12:06;5.03;;;1.80;;
55815;SDS011;41744;52.404;16.942;2024-01-15T13:14:33;5.37;;;1.90;;
55815;SDS011;41744;52.404;16.942;2024-01-15T13:16:59;6.40;;;2.30;;
55815;SDS011;41744;52.404;16.942;2024-01-15T13:19:25;7.40;;;2.13;;
55815;SDS011;41744;52.404;16.942;2024-01-15T13:21:52;5.57;;;1.73;;
55815;SDS011;41744;52.404;16.942;2024-01-15T13:24:19;7.40;;;2.17;;
55815;SDS011;41744;52.404;16.942;2024-01-15T13:26:45;5.43;;;1.73;;
55815;SDS011;41744;52.404;16.942;2024-01-15T13:29:11;7.23;;;2.30;;
55815;SDS011;41744;52.404;16.942;2024-01-15T13:31:37;10.07;;;2.10;;
55815;SDS011;41744;52.404;16.942;2024-01-15T13:34:03;7.43;;;2.30;;
55815;SDS011;41744;52.404;16.942;2024-01-15T13:36:29;5.50;;;2.10;;
55815;SDS011;41744;52.404;16.942;2024-01-15T13:38:55;5.20;;;2.03;;
55815;SDS011;41744;52.404;16.942;2024-01-15T13:41:21;5.43;;;1.80;;
55815;SDS011;41744;52.404;16.942;2024-01-15T13:43:52;10.37;;;2.47;;
55815;SDS011;41744;52.404;16.942;2024-01-15T13:46:18;4.00;;;2.20;;
55815;SDS011;41744;52.404;16.942;2024-01-15T13:48:45;6.63;;;2.57;;
55815;SDS011;41744;52.404;16.942;2024-01-15T13:51:11;7.30;;;2.23;;
55815;SDS011;41744;52.404;16.942;2024-01-15T13:53:40;6.93;;;2.57;;
55815;SDS011;41744;52.404;16.942;2024-01-15T13:56:06;8.60;;;2.00;;
55815;SDS011;41744;52.404;16.942;2024-01-15T13:58:33;3.93;;;1.80;;
55815;SDS011;41744;52.404;16.942;2024-01-15T14:00:59;5.97;;;1.83;;
55815;SDS011;41744;52.404;16.942;2024-01-15T14:03:25;4.23;;;1.60;;
55815;SDS011;41744;52.404;16.942;2024-01-15T14:05:51;5.43;;;1.90;;
55815;SDS011;41744;52.404;16.942;2024-01-15T14:08:17;6.87;;;2.27;;
55815;SDS011;41744;52.404;16.942;2024-01-15T14:10:43;6.70;;;2.17;;
55815;SDS011;41744;52.404;16.942;2024-01-15T14:13:10;6.53;;;1.83;;
55815;SDS011;41744;52.404;16.942;2024-01-15T14:15:36;7.70;;;1.83;;
55815;SDS011;41744;52.404;16.942;2024-01-15T14:18:05;11.57;;;2.77;;
55815;SDS011;41744;52.404;16.942;2024-01-15T14:20:31;5.67;;;2.10;;
55815;SDS011;41744;52.404;16.942;2024-01-15T14:22:57;7.67;;;2.00;;
55815;SDS011;41744;52.404;16.942;2024-01-15T14:25:24;6.10;;;2.30;;
55815;SDS011;41744;52.404;16.942;2024-01-15T14:27:50;5.80;;;2.40;;
55815;SDS011;41744;52.404;16.942;2024-01-15T14:30:16;8.40;;;2.70;;